»·PEaware :: N10MT 49X-L52

N10MT :: 49X-L52

FLIGHT INFORMATION

Flight Status: Arrived
Operator: Privately registered:
United States
More flights under this callsign
Pilot: Matthew T. (14159)
Aircraft: CESSNA T210 TURBO CENTURION
(T210)
More flights by this aircraft type
Origin: 49X Chemehuevi Valley
United States
Destination: L52 Oceano Co
United States
More flights between these airports :: More routes between these airports
Route:
File this flight plan on PilotEdge
Remarks:
Altitude:
(Current/Filed)
16,500ft
Speed:
(Current/Filed)
180kts
Departed: 01-Jan-19 03:58 PM
Arrived: 01-Jan-19 05:56 PM
Distance/Time
Traveled:
307nm/1:58
Distance/Time
To Go:
Arrived

Flight Plot

Page will automatically refresh every two minutes.


Map Options




Map Legend


Flown Route
Filed Route
Departure Airport
Arrival Airport
Navaid (VOR, NDB)
Fix

Horizontal Profiles

Position Reports

Time Latitude Longitude Heading Altitude Ground
Speed
01-Jan-19 15:49 34.528681 -114.430975 186 633ft 10kts
01-Jan-19 15:50 34.523864 -114.430981 180 633ft 20kts
01-Jan-19 15:51 34.522043 -114.431025 286 633ft 0kts
01-Jan-19 15:52 34.522043 -114.431025 286 633ft 0kts
01-Jan-19 15:53 34.522043 -114.431025 286 633ft 0kts
01-Jan-19 15:54 34.522043 -114.431025 286 633ft 0kts
01-Jan-19 15:55 34.522043 -114.431025 286 633ft 0kts
01-Jan-19 15:56 34.522265 -114.431982 358 633ft 0kts
01-Jan-19 15:57 34.535763 -114.431866 354 947ft 77kts
01-Jan-19 15:58 34.560851 -114.430964 358 1919ft 94kts
01-Jan-19 15:59 34.586055 -114.430883 354 2933ft 88kts
01-Jan-19 16:00 34.612553 -114.431668 357 3723ft 102kts
01-Jan-19 16:01 34.640285 -114.440981 327 4458ft 112kts
01-Jan-19 16:02 34.668608 -114.455817 350 5157ft 112kts
01-Jan-19 16:03 34.699638 -114.462315 357 5853ft 114kts
01-Jan-19 16:04 34.729962 -114.467946 356 6678ft 107kts
01-Jan-19 16:05 34.758676 -114.473476 343 7558ft 105kts
01-Jan-19 16:06 34.766525 -114.510574 280 8424ft 124kts
01-Jan-19 16:07 34.767778 -114.553479 279 9231ft 128kts
01-Jan-19 16:08 34.768787 -114.597072 279 10030ft 130kts
01-Jan-19 16:09 34.769762 -114.641067 278 10830ft 131kts
01-Jan-19 16:10 34.770770 -114.685529 277 11528ft 136kts
01-Jan-19 16:11 34.771844 -114.732420 277 12224ft 140kts
01-Jan-19 16:12 34.772870 -114.780174 277 12916ft 142kts
01-Jan-19 16:13 34.773891 -114.828778 278 13610ft 144kts
01-Jan-19 16:14 34.774907 -114.877827 278 14301ft 145kts
01-Jan-19 16:15 34.775898 -114.927156 278 14991ft 147kts
01-Jan-19 16:16 34.776861 -114.977134 278 15685ft 148kts
01-Jan-19 16:17 34.777796 -115.027771 280 16375ft 151kts
01-Jan-19 16:18 34.778930 -115.083857 280 16525ft 184kts
01-Jan-19 16:19 34.780165 -115.149920 281 16518ft 203kts
01-Jan-19 16:20 34.781444 -115.220673 282 16518ft 213kts
01-Jan-19 16:21 34.782681 -115.291795 282 16516ft 207kts
01-Jan-19 16:22 34.783814 -115.360060 283 16515ft 197kts
01-Jan-19 16:23 34.784896 -115.425828 283 16516ft 192kts
01-Jan-19 16:24 34.785911 -115.490331 283 16526ft 190kts
01-Jan-19 16:25 34.786890 -115.554430 283 16542ft 189kts
01-Jan-19 16:26 34.787851 -115.619219 283 16558ft 193kts
01-Jan-19 16:27 34.788737 -115.681618 282 16567ft 195kts
01-Jan-19 16:28 34.789624 -115.747641 282 16569ft 195kts
01-Jan-19 16:29 34.790488 -115.813938 282 16569ft 196kts
01-Jan-19 16:30 34.791313 -115.880076 282 16570ft 196kts
01-Jan-19 16:31 34.792108 -115.946593 282 16570ft 196kts
01-Jan-19 16:32 34.792866 -116.012812 282 16570ft 196kts
01-Jan-19 16:33 34.793585 -116.079368 282 16570ft 196kts
01-Jan-19 16:34 34.794272 -116.145732 282 16571ft 196kts
01-Jan-19 16:35 34.794923 -116.212270 282 16564ft 197kts
01-Jan-19 16:36 34.795505 -116.278946 282 16554ft 197kts
01-Jan-19 16:37 34.796079 -116.345744 282 16545ft 197kts
01-Jan-19 16:38 34.796608 -116.412123 282 16535ft 195kts
01-Jan-19 16:39 34.795604 -116.478258 274 16536ft 199kts
01-Jan-19 16:40 34.789012 -116.545490 274 16536ft 199kts
01-Jan-19 16:41 34.782467 -116.612266 274 16536ft 199kts
01-Jan-19 16:42 34.775952 -116.678592 273 16532ft 199kts
01-Jan-19 16:43 34.769365 -116.745188 273 16532ft 198kts
01-Jan-19 16:44 34.762740 -116.811894 273 16533ft 198kts
01-Jan-19 16:45 34.756079 -116.878553 273 16533ft 198kts
01-Jan-19 16:46 34.749399 -116.945079 273 16526ft 199kts
01-Jan-19 16:47 34.742624 -117.012159 273 16518ft 200kts
01-Jan-19 16:48 34.735754 -117.079763 273 16508ft 202kts
01-Jan-19 16:49 34.728806 -117.147767 273 16500ft 203kts
01-Jan-19 16:50 34.721770 -117.216150 273 16499ft 204kts
01-Jan-19 16:51 34.714723 -117.284367 273 16499ft 204kts
01-Jan-19 16:52 34.707619 -117.352760 272 16500ft 205kts
01-Jan-19 16:53 34.700409 -117.421831 272 16500ft 207kts
01-Jan-19 16:54 34.693107 -117.491291 272 16501ft 207kts
01-Jan-19 16:55 34.685748 -117.560910 272 16501ft 208kts
01-Jan-19 16:56 34.678337 -117.630662 272 16501ft 208kts
01-Jan-19 16:57 34.670944 -117.699845 272 16494ft 208kts
01-Jan-19 16:58 34.663491 -117.769203 272 16493ft 207kts
01-Jan-19 16:59 34.655993 -117.838605 272 16492ft 207kts
01-Jan-19 17:00 34.648469 -117.907947 272 16494ft 207kts
01-Jan-19 17:01 34.640897 -117.977191 272 16496ft 207kts
01-Jan-19 17:02 34.633283 -118.046696 272 16498ft 207kts
01-Jan-19 17:03 34.641589 -118.110989 298 16501ft 191kts
01-Jan-19 17:04 34.655447 -118.173414 297 16506ft 191kts
01-Jan-19 17:05 34.669107 -118.235768 297 16514ft 191kts
01-Jan-19 17:06 34.682795 -118.298420 297 16517ft 192kts
01-Jan-19 17:07 34.696405 -118.360985 297 16518ft 192kts
01-Jan-19 17:08 34.710055 -118.423853 297 16518ft 192kts
01-Jan-19 17:09 34.723668 -118.486729 297 16518ft 192kts
01-Jan-19 17:10 34.737227 -118.549510 297 16518ft 192kts
01-Jan-19 17:11 34.750810 -118.612634 297 16516ft 192kts
01-Jan-19 17:12 34.763980 -118.673895 297 16508ft 192kts
01-Jan-19 17:13 34.777356 -118.736394 297 16506ft 191kts
01-Jan-19 17:14 34.790713 -118.798902 297 16505ft 191kts
01-Jan-19 17:15 34.804106 -118.861436 298 16511ft 188kts
01-Jan-19 17:16 34.821281 -118.920421 301 16521ft 184kts
01-Jan-19 17:17 34.838372 -118.978783 300 16534ft 182kts
01-Jan-19 17:18 34.855261 -119.036683 299 16549ft 181kts
01-Jan-19 17:19 34.871964 -119.094204 299 16538ft 181kts
01-Jan-19 17:20 34.888719 -119.151940 299 16534ft 181kts
01-Jan-19 17:21 34.905605 -119.209869 298 16104ft 188kts
01-Jan-19 17:22 34.923243 -119.271037 297 15399ft 194kts
01-Jan-19 17:23 34.941117 -119.333121 297 14687ft 194kts
01-Jan-19 17:24 34.958802 -119.394631 297 13970ft 190kts
01-Jan-19 17:25 34.976090 -119.454838 296 13255ft 187kts
01-Jan-19 17:26 34.993027 -119.513946 296 12536ft 182kts
01-Jan-19 17:28 35.009489 -119.571474 296 11822ft 179kts
01-Jan-19 17:29 35.025697 -119.628305 296 11107ft 175kts
01-Jan-19 17:30 35.041310 -119.683113 295 10391ft 169kts
01-Jan-19 17:31 35.056434 -119.736249 294 9673ft 163kts
01-Jan-19 17:32 35.071046 -119.787701 293 8958ft 158kts
01-Jan-19 17:33 35.085119 -119.837498 292 8466ft 144kts
01-Jan-19 17:34 35.093122 -119.881993 277 8469ft 131kts
01-Jan-19 17:35 35.093873 -119.930291 276 8465ft 154kts
01-Jan-19 17:36 35.094625 -119.980119 276 7724ft 139kts
01-Jan-19 17:37 35.095254 -120.025747 275 7004ft 132kts
01-Jan-19 17:38 35.095800 -120.070151 274 6486ft 137kts
01-Jan-19 17:39 35.096386 -120.120580 274 6478ft 154kts
01-Jan-19 17:40 35.097049 -120.173289 275 6221ft 150kts
01-Jan-19 17:41 35.097638 -120.223300 275 5696ft 145kts
01-Jan-19 17:42 35.098187 -120.272210 275 5179ft 144kts
01-Jan-19 17:43 35.098712 -120.320967 275 4662ft 143kts
01-Jan-19 17:44 35.099226 -120.369889 274 4039ft 145kts
01-Jan-19 17:45 35.099889 -120.419033 275 3384ft 141kts
01-Jan-19 17:46 35.096952 -120.463019 260 2970ft 130kts
01-Jan-19 17:46 35.089972 -120.498744 262 2499ft 130kts
01-Jan-19 17:48 35.086850 -120.549240 294 1731ft 125kts
01-Jan-19 17:49 35.102842 -120.587489 299 1113ft 117kts
01-Jan-19 17:49 35.119429 -120.611866 323 982ft 118kts
01-Jan-19 17:50 35.110691 -120.630405 156 1035ft 125kts
01-Jan-19 17:52 35.088551 -120.638761 10 1150ft 116kts
01-Jan-19 17:52 35.088816 -120.619687 134 926ft 98kts
01-Jan-19 17:53 35.082117 -120.598376 21 681ft 62kts
01-Jan-19 17:54 35.095741 -120.611566 307 247ft 67kts
01-Jan-19 17:55 35.102594 -120.623918 40 18ft 5kts
01-Jan-19 17:56 35.102818 -120.623751 30 18ft 1kts
01-Jan-19 17:57 35.103041 -120.623922 213 18ft 0kts
01-Jan-19 17:58 35.103041 -120.623922 213 18ft 0kts
01-Jan-19 17:59 35.103041 -120.623922 213 18ft 0kts

Navigation Log

Ident Type
Flight plan parsing failed, navigation log unavailable